Time;durP1;ratioP1;P1;durP2;ratioP2;P2;SDS_P1;SDS_P2;PMS_P1;PMS_P2;Temp;Humidity;BMP_temperature;BMP_pressure;BME280_temperature;BME280_humidity;BME280_pressure;Samples;Min_cycle;Max_cycle;Signal;HPM_P1;HPM_P2
2022/07/27 00:00:25;;;;;;;5.20;1.50;;;13.00;51.70;;;;;;4997573;28;20212;-71
2022/07/27 00:02:52;;;;;;;3.40;1.67;;;13.00;51.80;;;;;;4981661;28;20662;-76
2022/07/27 00:05:20;;;;;;;5.70;1.53;;;13.00;51.30;;;;;;4996264;28;20299;-76
2022/07/27 00:07:47;;;;;;;4.43;1.50;;;13.00;51.80;;;;;;4994272;28;20197;-86
2022/07/27 00:10:15;;;;;;;3.63;1.73;;;13.10;51.30;;;;;;4983353;28;20595;-75
2022/07/27 00:13:02;;;;;;;3.53;1.50;;;13.20;51.10;;;;;;4998992;28;20244;-88
2022/07/27 00:15:40;;;;;;;3.00;1.50;;;13.30;51.10;;;;;;4980813;28;20648;-75
2022/07/27 00:18:07;;;;;;;5.83;2.10;;;13.60;51.10;;;;;;4977586;28;20196;-79
2022/07/27 00:20:44;;;;;;;5.23;1.93;;;13.60;50.00;;;;;;4999742;28;20728;-84
2022/07/27 00:23:20;;;;;;;6.03;1.30;;;13.50;50.00;;;;;;4999397;28;20185;-78
2022/07/27 00:25:48;;;;;;;5.17;1.40;;;13.80;49.30;;;;;;4998244;28;20197;-87
2022/07/27 00:28:19;;;;;;;2.80;1.23;;;13.80;48.90;;;;;;4998937;28;20181;-86
2022/07/27 00:30:52;;;;;;;6.87;1.47;;;13.80;48.70;;;;;;4997899;28;20182;-90
2022/07/27 00:33:22;;;;;;;4.63;1.30;;;14.00;49.50;;;;;;5019000;28;20197;-79
2022/07/27 00:35:50;;;;;;;4.57;1.27;;;14.00;48.10;;;;;;5018471;28;20169;-78
2022/07/27 00:38:18;;;;;;;2.33;1.20;;;14.20;48.00;;;;;;5019251;28;20184;-86
2022/07/27 00:40:53;;;;;;;3.07;1.20;;;14.30;47.30;;;;;;5013705;28;20316;-79
2022/07/27 00:43:24;;;;;;;5.57;1.10;;;14.20;46.70;;;;;;5025178;28;20183;-79
2022/07/27 00:45:52;;;;;;;5.80;1.43;;;14.30;46.00;;;;;;5012288;28;20186;-83
2022/07/27 00:48:22;;;;;;;3.53;1.30;;;14.30;46.00;;;;;;5004736;28;20185;-76
2022/07/27 00:50:50;;;;;;;6.17;1.30;;;14.50;46.20;;;;;;5012720;28;20188;-76
2022/07/27 00:53:32;;;;;;;3.43;1.47;;;14.60;45.30;;;;;;5017696;28;20224;-85
2022/07/27 00:56:00;;;;;;;2.70;1.30;;;14.70;45.40;;;;;;5015826;28;20192;-80
2022/07/27 00:58:28;;;;;;;4.33;1.33;;;14.80;45.70;;;;;;5002429;28;20181;-79
2022/07/27 01:00:56;;;;;;;3.87;1.47;;;15.00;45.70;;;;;;5007431;28;20206;-82
2022/07/27 01:03:23;;;;;;;5.93;1.40;;;15.00;45.10;;;;;;5014953;28;20240;-79
2022/07/27 01:05:51;;;;;;;2.67;1.10;;;14.80;44.80;;;;;;5006247;28;20205;-75
2022/07/27 01:08:18;;;;;;;2.50;1.40;;;14.90;44.90;;;;;;5008673;28;20185;-86
2022/07/27 01:10:47;;;;;;;2.90;1.30;;;15.10;44.40;;;;;;5014892;28;20521;-79
2022/07/27 01:13:17;;;;;;;4.80;1.70;;;15.20;45.20;;;;;;5014306;28;20647;-79
2022/07/27 01:15:44;;;;;;;5.70;1.40;;;15.30;43.60;;;;;;5008091;28;20196;-80
2022/07/27 01:18:25;;;;;;;4.23;1.10;;;15.30;43.30;;;;;;5013051;28;20223;-72
2022/07/27 01:20:54;;;;;;;3.23;1.20;;;15.50;44.20;;;;;;5008575;28;20259;-76
2022/07/27 01:23:22;;;;;;;4.90;1.30;;;15.80;43.40;;;;;;5014511;28;20268;-78
2022/07/27 01:25:49;;;;;;;2.03;1.10;;;15.80;43.30;;;;;;5011138;28;20177;-76
2022/07/27 01:28:17;;;;;;;4.47;1.20;;;15.60;42.40;;;;;;5009748;28;20228;-80
2022/07/27 01:30:44;;;;;;;4.73;1.33;;;15.80;42.40;;;;;;5011176;28;20192;-77
2022/07/27 01:33:12;;;;;;;3.33;1.10;;;16.10;41.90;;;;;;5010499;28;20674;-78
2022/07/27 01:35:39;;;;;;;3.83;1.10;;;16.00;40.90;;;;;;5009761;28;20635;-83
2022/07/27 01:38:10;;;;;;;0.90;0.77;;;16.00;41.40;;;;;;5010886;28;20182;-83
2022/07/27 01:40:38;;;;;;;5.10;1.40;;;15.70;41.10;;;;;;5006959;28;20218;-77
2022/07/27 01:43:06;;;;;;;3.47;1.10;;;16.00;41.80;;;;;;5012645;28;20173;-81
2022/07/27 01:45:33;;;;;;;7.43;1.67;;;16.20;40.40;;;;;;5013354;28;20222;-76
2022/07/27 01:48:01;;;;;;;2.97;1.20;;;16.10;40.80;;;;;;5009638;28;20187;-77
2022/07/27 01:50:28;;;;;;;5.30;1.27;;;16.30;40.60;;;;;;5006504;28;20264;-81
2022/07/27 01:52:56;;;;;;;4.43;1.50;;;16.50;40.40;;;;;;5013625;28;20274;-79
2022/07/27 01:55:23;;;;;;;5.73;1.37;;;16.50;39.70;;;;;;5012187;28;20187;-84
2022/07/27 01:57:50;;;;;;;5.03;1.20;;;16.30;39.50;;;;;;5010913;28;20197;-81
2022/07/27 02:00:18;;;;;;;5.07;1.43;;;16.40;40.40;;;;;;5010781;28;20586;-81
2022/07/27 02:02:45;;;;;;;3.03;0.90;;;16.60;40.50;;;;;;5012370;28;20191;-84
2022/07/27 02:05:13;;;;;;;5.87;1.70;;;16.60;39.80;;;;;;4997894;28;20187;-81
2022/07/27 02:07:40;;;;;;;4.90;1.70;;;16.70;39.40;;;;;;5013352;28;20194;-75
2022/07/27 02:10:09;;;;;;;3.07;1.30;;;16.40;39.30;;;;;;5012548;28;20240;-73
2022/07/27 02:12:36;;;;;;;4.20;1.30;;;16.60;39.90;;;;;;5011894;28;20247;-77
2022/07/27 02:15:12;;;;;;;2.93;1.20;;;17.10;39.80;;;;;;5011773;28;20209;-76
2022/07/27 02:17:40;;;;;;;3.17;1.00;;;17.20;39.10;;;;;;5013443;28;20201;-75
2022/07/27 02:20:09;;;;;;;3.60;1.20;;;17.30;39.20;;;;;;5012824;28;20220;-74
2022/07/27 02:22:36;;;;;;;3.80;1.30;;;17.20;38.80;;;;;;5011703;28;20188;-76
2022/07/27 02:25:05;;;;;;;3.70;1.40;;;17.40;39.00;;;;;;5005265;28;20572;-75
2022/07/27 02:27:33;;;;;;;4.03;1.40;;;17.40;38.10;;;;;;5013475;28;20195;-74
2022/07/27 02:30:01;;;;;;;5.00;1.33;;;17.20;39.00;;;;;;5011767;28;20191;-80
2022/07/27 02:32:28;;;;;;;3.80;1.23;;;17.30;38.70;;;;;;4994882;28;20683;-78
2022/07/27 02:34:55;;;;;;;5.13;1.47;;;17.30;38.90;;;;;;4998244;28;20197;-75
2022/07/27 02:37:23;;;;;;;1.60;1.00;;;17.30;38.60;;;;;;4989295;28;20185;-81
2022/07/27 02:39:51;;;;;;;3.67;1.37;;;17.50;38.60;;;;;;4991485;28;20204;-78
2022/07/27 02:42:19;;;;;;;3.70;1.30;;;17.60;38.40;;;;;;4992310;28;20193;-78
2022/07/27 02:44:50;;;;;;;3.07;1.00;;;17.90;38.40;;;;;;4990392;28;20228;-74
2022/07/27 02:47:17;;;;;;;4.70;1.20;;;18.10;37.90;;;;;;4993932;28;20193;-73
2022/07/27 02:49:44;;;;;;;3.97;1.10;;;18.00;37.80;;;;;;4990378;28;20195;-78
2022/07/27 02:52:12;;;;;;;2.27;1.10;;;18.10;37.50;;;;;;4990344;28;20182;-80
2022/07/27 02:54:39;;;;;;;5.90;1.13;;;17.80;37.40;;;;;;4984583;28;20245;-77
2022/07/27 02:57:07;;;;;;;3.97;1.30;;;17.90;37.90;;;;;;4989008;28;20243;-84
2022/07/27 02:59:35;;;;;;;3.17;1.00;;;17.90;37.90;;;;;;4992029;28;20209;-75
2022/07/27 03:02:02;;;;;;;2.60;1.00;;;18.20;38.40;;;;;;4975254;28;20606;-76
2022/07/27 03:04:29;;;;;;;3.33;0.90;;;18.50;37.80;;;;;;4992752;28;20188;-75
2022/07/27 03:06:57;;;;;;;3.43;0.80;;;18.80;37.00;;;;;;4992626;28;20193;-73
2022/07/27 03:09:24;;;;;;;1.93;0.90;;;18.80;36.70;;;;;;4991772;28;20186;-76
2022/07/27 03:11:51;;;;;;;3.93;1.30;;;18.80;36.70;;;;;;4992836;28;20730;-87
2022/07/27 03:14:19;;;;;;;4.00;1.30;;;18.70;36.60;;;;;;4990724;28;20208;-84
2022/07/27 03:16:46;;;;;;;2.53;1.13;;;19.00;36.60;;;;;;4990140;28;20247;-80
2022/07/27 03:19:13;;;;;;;2.20;1.10;;;19.10;35.90;;;;;;4990198;28;20186;-73
2022/07/27 03:21:40;;;;;;;3.67;1.30;;;18.70;36.20;;;;;;4991114;28;20201;-77
2022/07/27 03:24:08;;;;;;;4.30;0.97;;;19.10;36.10;;;;;;4992380;28;20193;-73
2022/07/27 03:26:35;;;;;;;2.47;1.13;;;19.10;36.40;;;;;;4992689;28;20186;-79
2022/07/27 03:29:02;;;;;;;1.63;0.90;;;19.00;35.80;;;;;;4992380;28;20184;-76
2022/07/27 03:31:30;;;;;;;4.43;0.97;;;19.10;35.60;;;;;;4998045;28;20225;-74
2022/07/27 03:33:57;;;;;;;2.53;0.97;;;19.40;35.10;;;;;;5011708;28;20652;-71
2022/07/27 03:36:25;;;;;;;4.00;0.83;;;19.40;35.50;;;;;;5011571;28;20190;-71
2022/07/27 03:38:52;;;;;;;2.40;1.10;;;19.80;35.00;;;;;;5013016;28;20543;-75
2022/07/27 03:41:19;;;;;;;2.87;1.13;;;20.00;34.80;;;;;;5010464;28;20205;-79
2022/07/27 03:43:46;;;;;;;2.93;1.30;;;19.80;34.20;;;;;;5006634;28;20200;-73
2022/07/27 03:46:14;;;;;;;2.40;1.10;;;19.70;34.70;;;;;;5015062;28;20602;-73
2022/07/27 03:48:41;;;;;;;3.27;1.10;;;19.40;34.90;;;;;;5011407;28;20569;-72
2022/07/27 03:51:09;;;;;;;2.83;1.20;;;19.60;35.20;;;;;;5011275;28;20551;-71
2022/07/27 03:53:36;;;;;;;2.37;1.07;;;19.70;34.60;;;;;;5008908;28;20177;-74
2022/07/27 03:56:03;;;;;;;4.40;1.00;;;20.30;34.10;;;;;;5012023;28;20204;-74
2022/07/27 03:58:31;;;;;;;5.43;1.10;;;20.10;34.00;;;;;;5009871;28;20644;-73
2022/07/27 04:00:58;;;;;;;2.90;1.00;;;20.00;34.00;;;;;;5010437;28;20220;-76
2022/07/27 04:03:26;;;;;;;2.53;1.00;;;20.30;33.70;;;;;;5010981;28;20180;-72
2022/07/27 04:05:53;;;;;;;5.23;1.10;;;20.60;34.00;;;;;;5011346;28;20548;-74
2022/07/27 04:08:20;;;;;;;1.57;0.80;;;20.80;33.40;;;;;;5012516;28;20177;-74
2022/07/27 04:10:48;;;;;;;1.87;0.67;;;21.50;31.90;;;;;;5010160;28;20237;-75
2022/07/27 04:13:17;;;;;;;4.03;0.83;;;21.20;31.60;;;;;;5011059;28;20185;-71
2022/07/27 04:15:44;;;;;;;2.37;0.90;;;21.10;32.50;;;;;;5012361;28;20474;-73
2022/07/27 04:18:11;;;;;;;4.83;0.90;;;20.90;32.00;;;;;;5011381;28;20220;-79
2022/07/27 04:20:39;;;;;;;3.13;1.00;;;20.90;32.40;;;;;;5012059;28;20220;-72
2022/07/27 04:23:06;;;;;;;3.17;0.90;;;21.20;32.50;;;;;;5012265;28;20252;-73
2022/07/27 04:25:33;;;;;;;2.93;0.83;;;21.70;31.50;;;;;;5011798;28;20717;-73
2022/07/27 04:28:01;;;;;;;3.57;1.33;;;21.90;31.30;;;;;;5012134;28;20185;-73
2022/07/27 04:30:28;;;;;;;2.93;0.87;;;21.60;31.70;;;;;;5012203;28;20201;-73
2022/07/27 04:32:55;;;;;;;2.80;1.17;;;22.30;31.30;;;;;;5009223;28;20273;-73
2022/07/27 04:35:23;;;;;;;2.90;0.90;;;22.80;30.40;;;;;;5014173;28;20520;-78
2022/07/27 04:37:54;;;;;;;1.63;0.87;;;22.90;29.70;;;;;;5021174;28;20200;-75
2022/07/27 04:40:21;;;;;;;3.53;1.10;;;23.30;29.40;;;;;;5035398;28;20216;-73
2022/07/27 04:42:48;;;;;;;1.37;0.70;;;22.80;29.80;;;;;;5015256;28;20269;-72
2022/07/27 04:45:16;;;;;;;2.87;1.10;;;22.60;29.40;;;;;;5013981;28;20223;-74
2022/07/27 04:47:43;;;;;;;1.30;0.70;;;22.10;30.00;;;;;;5016650;28;20547;-72
2022/07/27 04:50:11;;;;;;;3.73;1.10;;;22.30;30.80;;;;;;5019414;28;20535;-74
2022/07/27 04:52:38;;;;;;;3.40;0.90;;;22.00;30.60;;;;;;5015536;28;20177;-72
2022/07/27 04:55:06;;;;;;;2.50;0.80;;;21.80;30.80;;;;;;5030799;28;20242;-71
2022/07/27 04:57:33;;;;;;;2.80;0.90;;;22.10;30.30;;;;;;5027391;28;20191;-72
2022/07/27 05:00:00;;;;;;;2.63;0.70;;;21.80;30.00;;;;;;5032732;28;20296;-70
2022/07/27 05:02:30;;;;;;;2.00;0.80;;;22.10;30.40;;;;;;5019026;28;20241;-71
2022/07/27 05:04:59;;;;;;;1.50;0.67;;;21.50;30.70;;;;;;5013745;28;20573;-70
2022/07/27 05:07:27;;;;;;;2.20;0.70;;;22.00;30.00;;;;;;5010680;28;20193;-69
2022/07/27 05:09:54;;;;;;;2.03;0.73;;;22.80;29.70;;;;;;5014274;28;20592;-72
2022/07/27 05:12:21;;;;;;;3.03;0.90;;;22.80;29.50;;;;;;5024952;28;20181;-73
2022/07/27 05:14:49;;;;;;;4.10;1.10;;;22.10;30.90;;;;;;5022496;28;20185;-72
2022/07/27 05:17:16;;;;;;;1.40;0.80;;;22.60;30.20;;;;;;5031930;28;20484;-73
2022/07/27 05:19:43;;;;;;;2.17;0.80;;;22.50;30.20;;;;;;5034845;28;20264;-71
2022/07/27 05:22:10;;;;;;;1.53;0.67;;;22.40;29.20;;;;;;5034230;28;20188;-71
2022/07/27 05:24:38;;;;;;;3.43;1.03;;;21.80;29.90;;;;;;5022008;28;20654;-72
2022/07/27 05:27:05;;;;;;;2.50;0.93;;;21.70;30.20;;;;;;5030983;28;20264;-74
2022/07/27 05:29:32;;;;;;;1.67;0.70;;;22.00;30.00;;;;;;5034114;28;20187;-72
2022/07/27 05:32:00;;;;;;;2.37;1.13;;;22.30;29.60;;;;;;5033890;28;20313;-72
2022/07/27 05:34:27;;;;;;;1.53;0.70;;;22.10;30.10;;;;;;5027460;28;20185;-73
2022/07/27 05:36:54;;;;;;;2.23;0.67;;;22.30;29.20;;;;;;5028242;28;20172;-73
2022/07/27 05:39:22;;;;;;;2.43;1.00;;;22.00;29.80;;;;;;5021818;28;20189;-73
2022/07/27 05:41:49;;;;;;;2.20;0.93;;;22.70;29.30;;;;;;5013220;28;20216;-73
2022/07/27 05:44:16;;;;;;;3.70;0.80;;;23.20;28.70;;;;;;5018227;28;20216;-74
2022/07/27 05:46:44;;;;;;;1.33;0.70;;;22.60;28.80;;;;;;5004860;28;20591;-71
2022/07/27 05:49:11;;;;;;;2.30;1.00;;;22.10;29.40;;;;;;5019478;28;20234;-72
2022/07/27 05:51:39;;;;;;;2.37;0.90;;;22.50;28.90;;;;;;5014593;28;20654;-73
2022/07/27 05:54:06;;;;;;;2.77;0.83;;;21.90;29.60;;;;;;5021905;28;20236;-72
2022/07/27 05:56:34;;;;;;;2.80;0.90;;;21.70;29.90;;;;;;5008832;28;20189;-69
2022/07/27 05:59:02;;;;;;;2.43;0.70;;;21.10;30.50;;;;;;5013403;28;20220;-73
2022/07/27 06:01:29;;;;;;;4.83;1.20;;;21.30;30.10;;;;;;5013514;28;20220;-71
2022/07/27 06:03:56;;;;;;;4.07;1.20;;;20.80;31.60;;;;;;5012708;28;20185;-71
2022/07/27 06:09:12;;;;;;;2.83;1.27;;;22.20;29.50;;;;;;5011545;28;20184;-71
2022/07/27 06:11:39;;;;;;;5.57;1.33;;;22.30;30.00;;;;;;5012804;28;20189;-70
2022/07/27 06:14:06;;;;;;;3.53;1.40;;;21.80;30.90;;;;;;5010817;28;20651;-70
2022/07/27 06:16:34;;;;;;;2.00;1.00;;;21.20;31.40;;;;;;5008595;28;20665;-70
2022/07/27 06:19:01;;;;;;;3.67;1.30;;;20.30;33.10;;;;;;5017965;28;20220;-70
2022/07/27 06:21:28;;;;;;;6.23;1.37;;;19.80;33.80;;;;;;5013281;28;20255;-70
2022/07/27 06:23:56;;;;;;;6.40;1.40;;;19.20;35.70;;;;;;4996949;28;20639;-70
2022/07/27 06:26:23;;;;;;;6.20;1.50;;;18.70;37.50;;;;;;5006216;28;20217;-72
2022/07/27 06:28:57;;;;;;;6.13;1.50;;;18.30;38.70;;;;;;5012117;28;20502;-73
2022/07/27 06:31:27;;;;;;;2.67;1.33;;;18.10;39.50;;;;;;5010700;28;20657;-76
2022/07/27 06:33:54;;;;;;;7.17;1.70;;;17.80;40.10;;;;;;5012093;28;20549;-71
2022/07/27 06:36:23;;;;;;;5.53;1.47;;;18.00;39.90;;;;;;5011656;28;20255;-71
2022/07/27 06:38:50;;;;;;;3.67;1.57;;;17.80;40.70;;;;;;5012528;28;20601;-71
2022/07/27 06:41:18;;;;;;;5.13;1.53;;;17.60;41.10;;;;;;4998405;28;20312;-71
2022/07/27 06:43:46;;;;;;;4.30;1.83;;;17.30;41.30;;;;;;5008945;28;20690;-69
2022/07/27 06:46:13;;;;;;;4.97;1.50;;;17.20;41.70;;;;;;5010901;28;20200;-73
2022/07/27 06:48:41;;;;;;;3.87;1.43;;;17.00;42.10;;;;;;5012134;28;20579;-72
2022/07/27 06:51:09;;;;;;;4.77;1.40;;;17.00;42.40;;;;;;5012889;28;20334;-72
2022/07/27 06:53:36;;;;;;;5.00;1.67;;;16.80;42.40;;;;;;5016857;28;20175;-72
2022/07/27 06:56:04;;;;;;;8.07;1.80;;;16.80;42.90;;;;;;5012439;28;20189;-72
2022/07/27 06:58:33;;;;;;;5.53;1.73;;;16.70;43.30;;;;;;5013342;28;20207;-72
2022/07/27 07:01:02;;;;;;;5.53;1.77;;;16.60;43.00;;;;;;5012511;28;20223;-72
2022/07/27 07:03:30;;;;;;;4.97;1.60;;;16.50;43.30;;;;;;5010490;28;20195;-70
2022/07/27 07:05:57;;;;;;;7.37;2.13;;;16.50;43.50;;;;;;5011742;28;20666;-71
2022/07/27 07:08:24;;;;;;;3.80;1.47;;;16.30;43.80;;;;;;5012604;28;20539;-69
2022/07/27 07:10:52;;;;;;;6.43;1.77;;;16.30;43.90;;;;;;5012298;28;20625;-71
2022/07/27 07:13:19;;;;;;;6.53;1.80;;;16.20;43.70;;;;;;5012754;28;20291;-71
2022/07/27 07:15:46;;;;;;;3.77;1.50;;;16.10;44.50;;;;;;5012537;28;20186;-71
2022/07/27 07:18:14;;;;;;;3.13;1.37;;;16.00;44.50;;;;;;5012507;28;20185;-71
2022/07/27 07:20:42;;;;;;;5.57;1.53;;;15.90;44.70;;;;;;5012623;28;20213;-70
2022/07/27 07:23:10;;;;;;;4.03;1.60;;;15.80;45.30;;;;;;5011886;28;20188;-72
2022/07/27 07:25:38;;;;;;;5.80;1.67;;;15.70;45.60;;;;;;5012248;28;20214;-71
2022/07/27 07:28:06;;;;;;;7.10;1.97;;;15.70;45.60;;;;;;5012610;28;20173;-72
2022/07/27 07:30:34;;;;;;;3.90;1.63;;;15.70;45.70;;;;;;5012508;28;20189;-71
2022/07/27 07:33:02;;;;;;;5.97;1.90;;;15.60;45.80;;;;;;4993371;28;20284;-71
2022/07/27 07:35:30;;;;;;;6.20;2.30;;;15.50;46.20;;;;;;4992707;28;20194;-71
2022/07/27 07:37:57;;;;;;;7.47;2.23;;;15.40;46.50;;;;;;4992318;28;20188;-72
2022/07/27 07:40:24;;;;;;;6.27;1.97;;;15.40;47.00;;;;;;4992971;28;20214;-72
2022/07/27 07:42:58;;;;;;;4.87;1.90;;;15.30;47.00;;;;;;4996563;28;20192;-72
2022/07/27 07:45:27;;;;;;;5.27;1.57;;;15.30;47.10;;;;;;4978611;28;20202;-72
2022/07/27 07:47:56;;;;;;;6.53;2.03;;;15.20;47.80;;;;;;4991720;28;20185;-72
2022/07/27 07:50:24;;;;;;;5.93;2.30;;;15.20;47.70;;;;;;4975481;28;20201;-72
2022/07/27 07:52:53;;;;;;;5.73;2.33;;;15.10;48.30;;;;;;4993391;28;20178;-73
2022/07/27 07:55:23;;;;;;;5.20;2.13;;;15.00;48.50;;;;;;4993079;28;20185;-73
2022/07/27 07:57:51;;;;;;;6.63;2.10;;;15.00;49.00;;;;;;4992087;28;20192;-73
2022/07/27 08:00:19;;;;;;;5.60;2.33;;;14.90;49.80;;;;;;4990581;28;20279;-72
2022/07/27 08:02:57;;;;;;;6.70;2.37;;;14.90;50.00;;;;;;4992806;28;20186;-72
2022/07/27 08:05:25;;;;;;;6.93;2.67;;;14.80;50.60;;;;;;4994279;28;20178;-72
2022/07/27 08:07:54;;;;;;;7.80;2.20;;;14.70;50.60;;;;;;4997049;28;20622;-73
2022/07/27 08:10:22;;;;;;;8.80;2.50;;;14.70;50.70;;;;;;4999059;28;20276;-73
2022/07/27 08:12:53;;;;;;;8.07;2.03;;;14.60;51.70;;;;;;4995929;28;20277;-74
2022/07/27 08:15:22;;;;;;;7.97;2.90;;;14.50;52.50;;;;;;4995753;28;20595;-73
2022/07/27 08:17:49;;;;;;;7.37;2.47;;;14.50;52.30;;;;;;4992179;28;20265;-73
2022/07/27 08:20:17;;;;;;;5.73;2.80;;;14.40;52.70;;;;;;4995378;28;20210;-74
2022/07/27 08:22:44;;;;;;;9.43;3.53;;;14.30;53.50;;;;;;4994769;28;20218;-74
2022/07/27 08:25:13;;;;;;;9.50;5.20;;;14.30;53.80;;;;;;4995117;28;20208;-73
2022/07/27 08:27:40;;;;;;;10.33;5.00;;;14.20;54.10;;;;;;4996346;28;20185;-73
2022/07/27 08:30:09;;;;;;;8.97;5.03;;;14.20;53.10;;;;;;4996674;28;20280;-74
2022/07/27 08:32:52;;;;;;;6.97;3.80;;;14.10;54.20;;;;;;4996992;28;20289;-73
2022/07/27 08:35:20;;;;;;;5.97;2.77;;;14.10;53.70;;;;;;4993901;28;20197;-74
2022/07/27 08:37:47;;;;;;;8.03;2.80;;;14.10;52.80;;;;;;4990832;28;20190;-73
2022/07/27 08:40:16;;;;;;;6.03;3.00;;;14.20;52.70;;;;;;4995471;28;20210;-72
2022/07/27 08:42:43;;;;;;;6.37;2.60;;;14.20;51.70;;;;;;4995024;28;20201;-72
2022/07/27 08:45:14;;;;;;;6.17;2.43;;;14.30;51.10;;;;;;4991312;28;20181;-77
2022/07/27 08:47:43;;;;;;;6.37;2.40;;;14.40;50.10;;;;;;4995471;28;20219;-71
2022/07/27 08:50:24;;;;;;;6.20;1.87;;;14.50;49.80;;;;;;4994922;28;20185;-75
2022/07/27 08:52:56;;;;;;;6.40;1.93;;;14.60;49.40;;;;;;4996362;28;20483;-75
2022/07/27 08:55:25;;;;;;;7.50;2.07;;;14.70;49.00;;;;;;4995219;28;20189;-72
2022/07/27 08:57:53;;;;;;;5.87;2.10;;;14.60;49.00;;;;;;4996011;28;20296;-80
2022/07/27 09:00:21;;;;;;;8.17;2.30;;;14.70;48.60;;;;;;4988251;28;20210;-73
2022/07/27 09:02:48;;;;;;;3.67;1.83;;;14.60;49.00;;;;;;4991011;28;20192;-74
2022/07/27 09:05:15;;;;;;;5.37;1.70;;;14.60;48.60;;;;;;4985664;28;20564;-71
2022/07/27 09:07:43;;;;;;;6.63;2.20;;;14.70;48.50;;;;;;4996062;28;20178;-71
2022/07/27 09:10:13;;;;;;;4.67;1.70;;;14.60;48.70;;;;;;4995555;28;20209;-71
2022/07/27 09:12:40;;;;;;;5.57;1.70;;;14.50;48.90;;;;;;4984576;28;20244;-72
2022/07/27 09:15:11;;;;;;;2.93;1.60;;;14.50;49.00;;;;;;4995766;28;20206;-71
2022/07/27 09:17:40;;;;;;;3.80;2.00;;;14.40;49.40;;;;;;4994762;28;20648;-72
2022/07/27 09:20:11;;;;;;;4.63;2.40;;;14.30;49.90;;;;;;4995532;28;20283;-72
2022/07/27 09:22:52;;;;;;;4.63;1.90;;;14.30;50.40;;;;;;4996072;28;20174;-73
2022/07/27 09:25:23;;;;;;;4.43;1.87;;;14.20;50.40;;;;;;4982714;28;20535;-72
2022/07/27 09:27:56;;;;;;;5.87;2.00;;;14.10;51.20;;;;;;4994874;28;20186;-72
2022/07/27 09:30:26;;;;;;;3.53;1.90;;;14.00;51.30;;;;;;4995333;28;20180;-73
2022/07/27 09:33:04;;;;;;;3.33;2.00;;;13.90;51.30;;;;;;4989257;28;20222;-73
2022/07/27 09:35:33;;;;;;;2.97;1.63;;;13.90;51.80;;;;;;4994753;28;20174;-72
2022/07/27 09:38:20;;;;;;;4.40;1.70;;;13.80;52.40;;;;;;4994227;28;20208;-73
2022/07/27 09:41:07;;;;;;;4.20;2.00;;;13.80;52.10;;;;;;4985497;28;20228;-73
2022/07/27 09:43:55;;;;;;;5.60;1.90;;;13.80;52.50;;;;;;4993741;28;20572;-73
2022/07/27 09:46:41;;;;;;;2.10;1.70;;;13.70;52.90;;;;;;4995417;28;20228;-73
2022/07/27 09:49:35;;;;;;;3.27;1.80;;;13.70;52.90;;;;;;4995333;28;20526;-73
2022/07/27 09:52:03;;;;;;;4.93;1.93;;;13.60;53.30;;;;;;4990963;28;20198;-75
2022/07/27 09:54:46;;;;;;;3.63;2.00;;;13.50;53.60;;;;;;4992938;28;20321;-73
2022/07/27 09:57:13;;;;;;;2.30;1.70;;;13.50;54.00;;;;;;4993989;28;20473;-74
2022/07/27 09:59:40;;;;;;;5.53;1.87;;;13.40;54.20;;;;;;4993652;28;20186;-76
2022/07/27 10:02:08;;;;;;;4.37;1.80;;;13.30;54.20;;;;;;4992038;28;20253;-75
2022/07/27 10:04:37;;;;;;;3.77;1.90;;;13.30;54.60;;;;;;4980138;28;20649;-76
2022/07/27 10:07:04;;;;;;;2.50;1.80;;;13.20;55.00;;;;;;4993988;28;20185;-79
2022/07/27 10:09:33;;;;;;;2.83;2.00;;;13.20;55.70;;;;;;4993280;28;20930;-79
2022/07/27 10:12:03;;;;;;;4.10;1.70;;;13.10;55.70;;;;;;4988953;28;20663;-77
2022/07/27 10:14:31;;;;;;;2.37;1.50;;;13.00;56.20;;;;;;4991815;28;20185;-80
2022/07/27 10:16:59;;;;;;;4.07;1.77;;;13.00;56.30;;;;;;4993716;28;20190;-74
2022/07/27 10:19:38;;;;;;;4.90;2.13;;;12.90;56.50;;;;;;4994614;28;20178;-78
2022/07/27 10:22:06;;;;;;;2.93;1.57;;;12.90;56.40;;;;;;4991885;28;20261;-78
2022/07/27 10:24:35;;;;;;;6.70;2.10;;;12.90;56.50;;;;;;4990343;28;20185;-78
2022/07/27 10:27:31;;;;;;;3.00;1.87;;;12.80;57.30;;;;;;4994384;28;20178;-76
2022/07/27 10:29:59;;;;;;;5.13;2.00;;;12.80;57.40;;;;;;4972783;28;20644;-79
2022/07/27 10:32:32;;;;;;;4.63;1.80;;;12.70;57.90;;;;;;4993870;28;20218;-77
2022/07/27 10:35:00;;;;;;;3.90;1.90;;;12.60;57.90;;;;;;4983503;28;20241;-75
2022/07/27 10:37:31;;;;;;;6.57;2.67;;;12.60;58.30;;;;;;4994415;28;20185;-76
2022/07/27 10:42:46;;;;;;;4.60;2.07;;;12.50;58.50;;;;;;4993877;28;20199;-79
2022/07/27 10:45:16;;;;;;;3.73;1.93;;;12.50;59.30;;;;;;4983323;28;20224;-77
2022/07/27 10:47:46;;;;;;;6.17;2.27;;;12.40;59.40;;;;;;4993417;28;20182;-78
2022/07/27 10:50:16;;;;;;;6.37;2.33;;;12.30;60.80;;;;;;4992380;28;20198;-75
2022/07/27 10:52:55;;;;;;;4.77;2.30;;;12.20;61.70;;;;;;4993114;28;20225;-75
2022/07/27 10:55:31;;;;;;;5.60;2.43;;;12.20;61.90;;;;;;4993124;28;20530;-75
2022/07/27 10:58:22;;;;;;;5.27;2.50;;;12.00;63.00;;;;;;4993924;28;20320;-74
2022/07/27 11:00:50;;;;;;;4.27;2.17;;;11.90;63.50;;;;;;4977556;28;20222;-74
2022/07/27 11:03:22;;;;;;;3.97;2.33;;;11.80;64.20;;;;;;4975373;28;20182;-77
2022/07/27 11:06:02;;;;;;;7.13;2.20;;;11.70;64.80;;;;;;4993687;28;20185;-73
2022/07/27 11:08:32;;;;;;;2.53;1.80;;;11.70;64.80;;;;;;4993516;28;20193;-74
2022/07/27 11:11:00;;;;;;;3.73;2.13;;;11.60;65.40;;;;;;4993386;28;20818;-75
2022/07/27 11:13:29;;;;;;;5.30;2.23;;;11.60;65.40;;;;;;4986332;28;20181;-75
2022/07/27 11:16:00;;;;;;;2.90;1.97;;;11.50;65.60;;;;;;4993073;28;20178;-75
2022/07/27 11:18:33;;;;;;;4.97;2.30;;;11.50;64.50;;;;;;4993692;28;20665;-75
2022/07/27 11:21:19;;;;;;;5.27;2.50;;;11.50;65.50;;;;;;4984052;28;20215;-75
2022/07/27 11:23:58;;;;;;;5.20;1.97;;;11.50;64.30;;;;;;4977767;28;20675;-75
2022/07/27 11:26:30;;;;;;;2.13;1.80;;;11.50;63.70;;;;;;4965133;28;20601;-75
2022/07/27 11:28:58;;;;;;;4.33;2.03;;;11.50;64.60;;;;;;4993320;28;20182;-75
2022/07/27 11:31:25;;;;;;;6.63;2.33;;;11.40;64.40;;;;;;4991093;28;20296;-75
2022/07/27 11:34:00;;;;;;;4.77;2.50;;;11.40;65.30;;;;;;4993532;28;20196;-74
2022/07/27 11:36:49;;;;;;;5.67;2.13;;;11.40;65.60;;;;;;4989489;28;20182;-75
2022/07/27 11:39:25;;;;;;;2.53;2.13;;;11.40;63.80;;;;;;4992148;28;20192;-74
2022/07/27 11:42:02;;;;;;;4.97;2.00;;;11.50;64.30;;;;;;4993187;28;20212;-73
2022/07/27 11:44:30;;;;;;;5.00;1.80;;;11.50;63.30;;;;;;4993593;28;20184;-73
2022/07/27 11:46:59;;;;;;;4.83;2.10;;;11.60;63.30;;;;;;4992786;28;20182;-75
2022/07/27 11:49:29;;;;;;;5.37;1.90;;;11.50;63.50;;;;;;4990454;28;20210;-75
2022/07/27 11:52:05;;;;;;;4.73;1.97;;;11.50;64.70;;;;;;4981851;28;20658;-74
2022/07/27 11:54:41;;;;;;;4.50;2.00;;;11.50;64.30;;;;;;4979406;28;20516;-74
2022/07/27 11:57:17;;;;;;;2.93;2.30;;;11.50;64.90;;;;;;4991624;28;20224;-75
2022/07/27 11:59:45;;;;;;;4.13;2.00;;;11.30;65.70;;;;;;4980718;28;20190;-74
2022/07/27 12:02:18;;;;;;;2.87;1.83;;;11.30;66.30;;;;;;4987210;28;20661;-74
2022/07/27 12:04:48;;;;;;;3.00;1.70;;;11.20;66.00;;;;;;4995034;28;20195;-75
2022/07/27 12:07:29;;;;;;;3.67;1.70;;;11.20;66.30;;;;;;4992530;28;20184;-79
2022/07/27 12:10:02;;;;;;;2.40;1.60;;;11.20;66.30;;;;;;4989971;28;20198;-77
2022/07/27 12:12:31;;;;;;;2.23;1.50;;;11.10;66.40;;;;;;4989186;28;20236;-76
2022/07/27 12:15:02;;;;;;;2.93;1.67;;;11.10;66.90;;;;;;4988876;28;20309;-76
2022/07/27 12:17:30;;;;;;;2.20;1.70;;;11.10;67.00;;;;;;4990171;28;20197;-75
2022/07/27 12:20:08;;;;;;;4.87;1.50;;;11.00;66.70;;;;;;4989392;28;20249;-75
2022/07/27 12:22:40;;;;;;;4.07;1.90;;;11.00;66.80;;;;;;4989298;28;20663;-75
2022/07/27 12:25:16;;;;;;;3.00;1.70;;;11.00;67.00;;;;;;4983184;28;20197;-75
2022/07/27 12:28:01;;;;;;;4.50;1.60;;;11.00;67.10;;;;;;4990095;28;20266;-74
2022/07/27 12:30:32;;;;;;;2.27;1.80;;;11.00;66.90;;;;;;4991910;28;20268;-73
2022/07/27 12:33:01;;;;;;;2.70;1.90;;;11.10;67.10;;;;;;5008340;28;20229;-76
2022/07/27 12:35:32;;;;;;;2.67;1.60;;;11.10;67.00;;;;;;5013708;28;20714;-75
2022/07/27 12:38:06;;;;;;;2.87;1.60;;;11.10;67.00;;;;;;5008089;28;20188;-76
2022/07/27 12:40:34;;;;;;;4.03;1.83;;;11.10;67.00;;;;;;5011035;28;20725;-75
2022/07/27 12:43:05;;;;;;;2.83;1.90;;;11.10;67.30;;;;;;5009479;28;20275;-75
2022/07/27 12:45:35;;;;;;;5.17;1.83;;;11.10;66.50;;;;;;5008254;28;20279;-78
2022/07/27 12:48:11;;;;;;;4.10;1.63;;;11.10;66.10;;;;;;5011133;28;20599;-78
2022/07/27 12:50:41;;;;;;;2.37;1.50;;;11.20;65.70;;;;;;5014466;28;20188;-74
2022/07/27 12:53:09;;;;;;;2.13;1.50;;;11.20;64.90;;;;;;5007245;28;20569;-74
2022/07/27 12:55:37;;;;;;;2.93;1.50;;;11.30;64.90;;;;;;5017915;28;20270;-78
2022/07/27 12:58:08;;;;;;;4.73;1.60;;;11.30;64.50;;;;;;5014901;28;20651;-73
2022/07/27 13:00:37;;;;;;;3.60;1.30;;;11.30;64.70;;;;;;5012254;28;20212;-75
2022/07/27 13:03:05;;;;;;;2.63;1.30;;;11.30;64.80;;;;;;5014902;28;20259;-74
2022/07/27 13:05:34;;;;;;;2.70;1.77;;;11.20;65.30;;;;;;5014163;28;20199;-76